createdAt,value
2023-06-04T00:01:28.963Z,53.87
2023-06-04T00:03:55.949Z,54.73
2023-06-04T00:06:22.786Z,55.02
2023-06-04T00:08:49.568Z,53.11
2023-06-04T00:11:16.330Z,53.19
2023-06-04T00:13:43.036Z,52.71
2023-06-04T00:16:09.856Z,55.46
2023-06-04T00:18:36.636Z,53.46
2023-06-04T00:21:03.365Z,53.17
2023-06-04T00:23:30.116Z,53.51
2023-06-04T00:25:56.809Z,56.09
2023-06-04T00:28:23.490Z,54.12
2023-06-04T00:30:50.142Z,54.64
2023-06-04T00:33:19.013Z,55.21
2023-06-04T00:35:45.693Z,56.25
2023-06-04T00:38:12.423Z,58.93
2023-06-04T00:40:39.086Z,58.45
2023-06-04T00:43:06.729Z,56.72
2023-06-04T00:45:33.479Z,58.26
2023-06-04T00:48:00.371Z,58.74
2023-06-04T00:50:27.106Z,57.14
2023-06-04T00:52:55.312Z,57.84
2023-06-04T00:55:22.215Z,56.53
2023-06-04T00:57:49.052Z,56.06
2023-06-04T01:00:16.064Z,55.43
2023-06-04T01:02:44.985Z,55.49
2023-06-04T01:05:17.907Z,56.03
2023-06-04T01:07:47.912Z,56.63
2023-06-04T01:10:15.624Z,57.92
2023-06-04T01:12:45.660Z,57.54
2023-06-04T01:15:12.868Z,57.30
2023-06-04T01:17:52.651Z,57.18
2023-06-04T01:20:22.381Z,57.74
2023-06-04T01:23:12.406Z,58.31
2023-06-04T01:25:41.104Z,58.50
2023-06-04T01:28:11.833Z,57.82
2023-06-04T01:30:49.655Z,58.41
2023-06-04T01:33:18.997Z,58.19
2023-06-04T01:35:46.563Z,58.45
2023-06-04T01:38:13.555Z,58.41
2023-06-04T01:40:40.432Z,58.13
2023-06-04T01:43:07.208Z,58.41
2023-06-04T01:45:34.816Z,58.70
2023-06-04T01:48:06.027Z,58.75
2023-06-04T01:50:36.383Z,58.79
2023-06-04T01:53:03.239Z,59.26
2023-06-04T01:55:34.714Z,59.33
2023-06-04T01:58:01.917Z,59.38
2023-06-04T02:00:28.783Z,59.54
2023-06-04T02:02:57.388Z,60.00
2023-06-04T02:05:24.374Z,60.52
2023-06-04T02:07:52.536Z,60.41
2023-06-04T02:10:20.566Z,60.16
2023-06-04T02:13:03.713Z,59.99
2023-06-04T02:15:32.514Z,59.81
2023-06-04T02:18:04.012Z,60.12
2023-06-04T02:20:30.858Z,61.02
2023-06-04T02:22:57.609Z,59.94
2023-06-04T02:25:25.012Z,60.87
2023-06-04T02:27:51.814Z,60.85
2023-06-04T02:30:18.555Z,60.24
2023-06-04T02:32:45.678Z,59.88
2023-06-04T02:35:22.501Z,62.52
2023-06-04T02:37:49.504Z,62.57
2023-06-04T02:40:16.665Z,61.35
2023-06-04T02:42:43.505Z,60.29
2023-06-04T02:45:11.634Z,60.45
2023-06-04T02:47:38.684Z,60.31
2023-06-04T02:50:06.072Z,60.56
2023-06-04T02:52:34.269Z,60.51
2023-06-04T02:55:00.949Z,61.57
2023-06-04T02:57:27.626Z,62.82
2023-06-04T02:59:56.646Z,62.38
2023-06-04T03:02:23.536Z,62.17
2023-06-04T03:04:52.199Z,61.75
2023-06-04T03:07:21.909Z,61.21
2023-06-04T03:09:48.716Z,60.59
2023-06-04T03:12:15.874Z,60.65
2023-06-04T03:14:42.773Z,60.38
2023-06-04T03:17:11.743Z,61.25
2023-06-04T03:19:39.784Z,60.53
2023-06-04T03:22:07.546Z,60.52
2023-06-04T03:24:39.798Z,60.75
2023-06-04T03:27:10.488Z,61.31
2023-06-04T03:29:38.215Z,61.90
2023-06-04T03:32:05.846Z,60.57
2023-06-04T03:34:35.725Z,60.09
2023-06-04T03:37:02.921Z,59.79
2023-06-04T03:39:29.735Z,59.76
2023-06-04T03:41:56.645Z,61.35
2023-06-04T03:44:23.698Z,60.72
2023-06-04T03:46:50.900Z,59.55
2023-06-04T03:49:20.812Z,59.38
2023-06-04T03:51:47.658Z,59.32
2023-06-04T03:54:20.897Z,59.52
2023-06-04T03:56:48.165Z,59.08
2023-06-04T03:59:17.932Z,58.79
2023-06-04T04:01:45.076Z,58.30
2023-06-04T04:04:13.158Z,59.03
2023-06-04T04:06:39.873Z,58.91
2023-06-04T04:09:08.029Z,58.00
2023-06-04T04:11:34.835Z,58.12
2023-06-04T04:14:04.786Z,59.08
2023-06-04T04:16:31.528Z,58.14
2023-06-04T04:18:58.504Z,57.68
2023-06-04T04:21:25.306Z,57.56
2023-06-04T04:23:53.256Z,57.39
2023-06-04T04:26:20.291Z,57.10
2023-06-04T04:28:47.101Z,57.47
2023-06-04T04:31:14.054Z,56.50
2023-06-04T04:33:41.063Z,57.30
2023-06-04T04:36:13.785Z,55.83
2023-06-04T04:38:41.390Z,57.67
2023-06-04T04:41:09.603Z,56.96
2023-06-04T04:43:38.840Z,57.20
2023-06-04T04:46:06.025Z,56.64
2023-06-04T04:48:33.111Z,54.36
2023-06-04T04:51:00.147Z,54.84
2023-06-04T04:53:27.718Z,55.76
2023-06-04T04:55:54.409Z,55.10
2023-06-04T04:58:21.179Z,54.46
2023-06-04T05:00:48.993Z,53.80
2023-06-04T05:03:16.157Z,54.33
2023-06-04T05:05:44.631Z,53.84
2023-06-04T05:08:15.216Z,53.40
2023-06-04T05:10:41.827Z,53.39
2023-06-04T05:13:08.590Z,52.56
2023-06-04T05:15:36.433Z,52.15
2023-06-04T05:18:04.776Z,52.10
2023-06-04T05:20:31.934Z,52.29
2023-06-04T05:22:58.759Z,52.12
2023-06-04T05:25:25.513Z,51.98
2023-06-04T05:27:55.705Z,51.30
2023-06-04T05:30:22.881Z,51.30
2023-06-04T05:32:51.830Z,51.33
2023-06-04T05:35:18.725Z,51.25
2023-06-04T05:37:46.898Z,51.16
2023-06-04T05:40:13.734Z,50.40
2023-06-04T05:42:42.621Z,49.96
2023-06-04T05:45:10.874Z,49.47
2023-06-04T05:47:38.235Z,48.68
2023-06-04T05:50:06.021Z,48.93
2023-06-04T05:52:34.361Z,48.60
2023-06-04T05:55:01.095Z,48.21
2023-06-04T05:57:27.786Z,48.11
2023-06-04T05:59:54.438Z,48.14
2023-06-04T06:02:21.365Z,48.09
2023-06-04T06:04:48.077Z,48.70
2023-06-04T06:07:15.950Z,47.77
2023-06-04T06:09:42.740Z,47.52
2023-06-04T06:12:09.449Z,47.70
2023-06-04T06:14:36.839Z,47.46
2023-06-04T06:17:04.223Z,47.24
2023-06-04T06:19:31.070Z,46.92
2023-06-04T06:21:59.848Z,45.95
2023-06-04T06:24:27.660Z,46.06
2023-06-04T06:26:54.345Z,46.32
2023-06-04T06:29:22.614Z,45.81
2023-06-04T06:31:49.335Z,46.64
2023-06-04T06:34:16.184Z,45.10
2023-06-04T06:36:43.012Z,44.98
2023-06-04T06:39:10.135Z,44.83
2023-06-04T06:41:38.111Z,43.29
2023-06-04T06:44:05.318Z,42.51
2023-06-04T06:46:32.005Z,43.24
2023-06-04T06:48:58.925Z,42.50
2023-06-04T06:51:25.761Z,42.41
2023-06-04T06:53:52.460Z,42.05
2023-06-04T06:56:19.323Z,41.38
2023-06-04T06:58:46.913Z,41.83
2023-06-04T07:01:14.148Z,41.21
2023-06-04T07:03:41.066Z,40.61
2023-06-04T07:06:07.796Z,39.94
2023-06-04T07:08:34.796Z,39.55
2023-06-04T07:11:03.378Z,38.75
2023-06-04T07:13:30.201Z,38.80
2023-06-04T07:15:56.901Z,39.61
2023-06-04T07:18:23.548Z,39.44
2023-06-04T07:20:50.943Z,40.09
2023-06-04T07:23:17.795Z,40.36
2023-06-04T07:25:44.535Z,40.12
2023-06-04T07:28:11.357Z,39.87
2023-06-04T07:30:39.450Z,38.99
2023-06-04T07:33:07.509Z,40.50
2023-06-04T07:35:34.380Z,39.21
2023-06-04T07:38:01.062Z,39.26
2023-06-04T07:40:27.781Z,39.28
2023-06-04T07:42:54.608Z,38.84
2023-06-04T07:45:21.301Z,39.56
2023-06-04T07:47:48.138Z,36.25
2023-06-04T07:50:14.953Z,36.59
2023-06-04T07:52:41.644Z,36.46
2023-06-04T07:55:09.609Z,36.51
2023-06-04T07:57:37.396Z,35.70
2023-06-04T08:00:06.896Z,36.04
2023-06-04T08:02:33.659Z,36.29
2023-06-04T08:05:01.318Z,35.89
2023-06-04T08:07:28.112Z,34.80
2023-06-04T08:09:56.805Z,34.95
2023-06-04T08:12:25.222Z,35.53
2023-06-04T08:14:51.898Z,35.00
2023-06-04T08:17:18.672Z,33.50
2023-06-04T08:19:45.509Z,33.52
2023-06-04T08:22:12.703Z,32.49
2023-06-04T08:24:40.819Z,32.54
2023-06-04T08:27:09.497Z,32.37
2023-06-04T08:29:37.973Z,32.16
2023-06-04T08:32:05.201Z,32.40
2023-06-04T08:34:32.180Z,31.94
2023-06-04T08:36:58.836Z,30.83
2023-06-04T08:39:26.036Z,31.64
2023-06-04T08:41:55.661Z,31.37
2023-06-04T08:44:22.292Z,31.15
2023-06-04T08:46:54.248Z,31.94
2023-06-04T08:49:23.448Z,31.31
2023-06-04T08:51:50.391Z,30.89
2023-06-04T08:54:17.058Z,30.00
2023-06-04T08:56:45.354Z,30.23
2023-06-04T08:59:12.355Z,29.62
2023-06-04T09:01:39.485Z,29.09
2023-06-04T09:04:09.967Z,29.98
2023-06-04T09:06:39.037Z,28.80
2023-06-04T09:09:11.535Z,28.94
2023-06-04T09:11:50.202Z,29.49
2023-06-04T09:14:19.735Z,29.68
2023-06-04T09:16:46.318Z,29.80
2023-06-04T09:19:13.095Z,28.27
2023-06-04T09:21:54.245Z,27.92
2023-06-04T09:24:22.372Z,27.73
2023-06-04T09:26:50.472Z,26.99
2023-06-04T09:29:19.253Z,24.38
2023-06-04T09:31:58.741Z,25.31
2023-06-04T09:34:30.103Z,25.98
2023-06-04T09:36:57.695Z,25.88
2023-06-04T09:39:24.590Z,26.07
2023-06-04T09:42:04.081Z,26.33
2023-06-04T09:44:31.525Z,24.46
2023-06-04T09:46:59.375Z,26.06
2023-06-04T09:49:26.623Z,26.33
2023-06-04T09:51:53.355Z,24.97
2023-06-04T09:54:23.574Z,26.09
2023-06-04T09:56:50.264Z,25.70
2023-06-04T09:59:19.052Z,25.45
2023-06-04T10:01:46.528Z,24.19
2023-06-04T10:04:16.133Z,21.98
2023-06-04T10:06:43.856Z,22.48
2023-06-04T10:09:10.703Z,24.37
2023-06-04T10:11:48.585Z,22.56
2023-06-04T10:14:20.038Z,22.02
2023-06-04T10:16:49.058Z,22.13
2023-06-04T10:19:17.626Z,22.94
2023-06-04T10:21:45.155Z,24.30
2023-06-04T10:24:13.804Z,24.42
2023-06-04T10:26:41.877Z,22.80
2023-06-04T10:29:09.624Z,23.24
2023-06-04T10:31:38.400Z,21.79
2023-06-04T10:34:05.227Z,21.92
2023-06-04T10:36:31.925Z,20.39
2023-06-04T10:38:59.875Z,21.30
2023-06-04T10:41:27.742Z,21.68
2023-06-04T10:44:02.908Z,22.12
2023-06-04T10:46:41.210Z,22.63
2023-06-04T10:49:10.483Z,22.42
2023-06-04T10:51:39.870Z,23.53
2023-06-04T10:54:06.493Z,23.54
2023-06-04T10:56:38.626Z,24.36
2023-06-04T10:59:18.859Z,24.11
2023-06-04T11:01:47.045Z,24.10
2023-06-04T11:04:24.721Z,23.88
2023-06-04T11:07:09.916Z,25.27
2023-06-04T11:09:38.313Z,25.68
2023-06-04T11:12:08.395Z,25.83
2023-06-04T11:14:35.046Z,25.83
2023-06-04T11:17:16.038Z,25.72
2023-06-04T11:19:42.761Z,26.94
2023-06-04T11:22:13.553Z,27.73
2023-06-04T11:24:40.273Z,27.88
2023-06-04T11:27:14.913Z,29.38
2023-06-04T11:29:44.680Z,28.71
2023-06-04T11:32:21.851Z,29.09
2023-06-04T11:34:48.531Z,32.38
2023-06-04T11:37:15.221Z,32.59
2023-06-04T11:39:44.118Z,32.31
2023-06-04T11:42:11.614Z,30.99
2023-06-04T11:44:39.537Z,30.52
2023-06-04T11:47:09.204Z,30.47
2023-06-04T11:49:37.591Z,30.31
2023-06-04T11:52:05.352Z,31.31
2023-06-04T11:54:38.062Z,31.65
2023-06-04T11:57:06.152Z,31.68
2023-06-04T11:59:33.219Z,30.56
2023-06-04T12:02:00.245Z,30.61
2023-06-04T12:04:32.120Z,30.95
2023-06-04T12:07:01.445Z,32.23
2023-06-04T12:09:29.792Z,31.82
2023-06-04T12:12:04.281Z,31.98
2023-06-04T12:14:31.306Z,32.07
2023-06-04T12:17:02.363Z,31.20
2023-06-04T12:19:29.530Z,32.02
2023-06-04T12:22:05.704Z,32.18
2023-06-04T12:24:37.217Z,31.13
2023-06-04T12:27:12.384Z,32.15
2023-06-04T12:29:39.135Z,33.02
2023-06-04T12:32:11.337Z,33.85
2023-06-04T12:34:42.643Z,34.03
2023-06-04T12:37:09.839Z,34.16
2023-06-04T12:39:38.145Z,35.01
2023-06-04T12:42:08.138Z,35.51
2023-06-04T12:44:36.705Z,35.74
2023-06-04T12:47:04.749Z,36.00
2023-06-04T12:49:32.893Z,36.18
2023-06-04T12:52:01.237Z,36.90
2023-06-04T12:54:28.437Z,37.54
2023-06-04T12:56:57.592Z,36.75
2023-06-04T12:59:26.662Z,38.45
2023-06-04T13:01:53.959Z,40.24
2023-06-04T13:04:20.742Z,39.80
2023-06-04T13:06:47.685Z,39.03
2023-06-04T13:11:45.638Z,37.77
2023-06-04T13:14:12.791Z,37.32
2023-06-04T13:16:40.120Z,37.43
2023-06-04T13:19:07.749Z,37.53
2023-06-04T13:21:36.065Z,37.37
2023-06-04T13:24:02.893Z,37.48
2023-06-04T13:26:29.611Z,36.94
2023-06-04T13:28:57.364Z,36.80
2023-06-04T13:31:24.058Z,37.16
2023-06-04T13:33:50.785Z,37.34
2023-06-04T13:36:17.481Z,36.73
2023-06-04T13:38:44.578Z,35.88
2023-06-04T13:41:11.558Z,35.83
2023-06-04T13:43:38.592Z,36.33
2023-06-04T13:46:05.679Z,35.26
2023-06-04T13:48:32.699Z,34.63
2023-06-04T13:50:59.511Z,35.66
2023-06-04T13:53:26.342Z,36.51
2023-06-04T13:55:58.946Z,36.79
2023-06-04T13:58:28.683Z,35.69
2023-06-04T14:00:55.838Z,35.44
2023-06-04T14:03:22.971Z,35.31
2023-06-04T14:05:49.954Z,35.06
2023-06-04T14:08:17.115Z,35.81
2023-06-04T14:10:44.068Z,34.36
2023-06-04T14:13:11.191Z,34.67
2023-06-04T14:15:38.670Z,35.21
2023-06-04T14:18:06.128Z,35.40
2023-06-04T14:20:33.134Z,34.79
2023-06-04T14:23:00.814Z,36.50
2023-06-04T14:25:27.933Z,35.68
2023-06-04T14:27:54.706Z,37.07
2023-06-04T14:30:21.679Z,36.85
2023-06-04T14:32:48.590Z,36.30
2023-06-04T14:35:15.529Z,37.03
2023-06-04T14:37:42.442Z,37.17
2023-06-04T14:40:09.599Z,36.98
2023-06-04T14:42:36.301Z,37.45
2023-06-04T14:45:03.316Z,37.42
2023-06-04T14:47:30.009Z,36.69
2023-06-04T14:49:56.794Z,32.31
2023-06-04T14:52:23.496Z,31.22
2023-06-04T14:54:50.311Z,30.12
2023-06-04T14:57:19.940Z,28.30
2023-06-04T14:59:49.196Z,33.39
2023-06-04T15:02:20.499Z,36.49
2023-06-04T15:04:49.988Z,37.52
2023-06-04T15:07:16.736Z,37.61
2023-06-04T15:09:43.504Z,38.85
2023-06-04T15:12:10.261Z,39.61
2023-06-04T15:14:36.943Z,40.60
2023-06-04T15:17:07.409Z,39.58
2023-06-04T15:19:34.093Z,33.92
2023-06-04T15:22:00.776Z,31.75
2023-06-04T15:24:27.660Z,32.95
2023-06-04T15:26:54.439Z,30.43
2023-06-04T15:29:21.255Z,31.52
2023-06-04T15:31:48.021Z,33.36
2023-06-04T15:34:14.761Z,32.46
2023-06-04T15:36:41.571Z,34.12
2023-06-04T15:39:09.286Z,32.86
2023-06-04T15:41:35.921Z,33.14
2023-06-04T15:44:03.556Z,34.68
2023-06-04T15:46:31.132Z,36.40
2023-06-04T15:48:57.956Z,37.73
2023-06-04T15:51:24.727Z,38.04
2023-06-04T15:53:51.870Z,38.65
2023-06-04T15:56:20.085Z,38.24
2023-06-04T15:58:46.896Z,37.78
2023-06-04T16:01:13.712Z,38.29
2023-06-04T16:03:40.525Z,38.96
2023-06-04T16:06:07.556Z,39.44
2023-06-04T16:08:34.608Z,39.82
2023-06-04T16:11:01.289Z,40.91
2023-06-04T16:13:27.947Z,41.21
2023-06-04T16:15:56.756Z,40.84
2023-06-04T16:18:23.572Z,40.88
2023-06-04T16:20:50.368Z,41.29
2023-06-04T16:23:17.234Z,41.58
2023-06-04T16:25:43.958Z,41.16
2023-06-04T16:28:10.793Z,41.02
2023-06-04T16:30:37.832Z,41.30
2023-06-04T16:33:04.756Z,42.00
2023-06-04T16:35:32.977Z,41.96
2023-06-04T16:38:00.251Z,41.83
2023-06-04T16:40:26.980Z,42.95
2023-06-04T16:42:54.368Z,43.53
2023-06-04T16:45:21.113Z,42.49
2023-06-04T16:47:49.705Z,43.35
2023-06-04T16:50:16.808Z,43.04
2023-06-04T16:52:43.684Z,43.25
2023-06-04T16:55:10.662Z,43.49
2023-06-04T16:57:37.500Z,43.28
2023-06-04T17:00:17.673Z,44.42
2023-06-04T17:02:52.276Z,45.49
2023-06-04T17:05:25.094Z,45.43
2023-06-04T17:07:52.955Z,45.59
2023-06-04T17:10:19.896Z,45.76
2023-06-04T17:12:46.831Z,46.35
2023-06-04T17:15:14.150Z,46.77
2023-06-04T17:17:40.998Z,47.05
2023-06-04T17:20:08.420Z,47.27
2023-06-04T17:22:35.525Z,47.42
2023-06-04T17:25:02.426Z,47.00
2023-06-04T17:27:29.339Z,47.44
2023-06-04T17:29:56.088Z,47.28
2023-06-04T17:32:22.959Z,46.39
2023-06-04T17:34:51.327Z,46.55
2023-06-04T17:37:17.948Z,46.44
2023-06-04T17:39:45.335Z,46.32
2023-06-04T17:42:12.099Z,46.25
2023-06-04T17:44:38.805Z,46.65
2023-06-04T17:47:07.034Z,47.00
2023-06-04T17:49:34.096Z,46.92
2023-06-04T17:52:01.548Z,47.37
2023-06-04T17:54:28.281Z,47.50
2023-06-04T17:56:54.977Z,47.51
2023-06-04T17:59:21.648Z,48.52
2023-06-04T18:01:48.538Z,48.25
2023-06-04T18:04:16.775Z,48.61
2023-06-04T18:06:43.572Z,49.25
2023-06-04T18:09:10.276Z,49.38
2023-06-04T18:11:36.974Z,49.89
2023-06-04T18:14:06.070Z,50.55
2023-06-04T18:16:32.866Z,50.50
2023-06-04T18:18:59.529Z,51.06
2023-06-04T18:21:26.796Z,51.29
2023-06-04T18:23:54.504Z,51.98
2023-06-04T18:26:21.810Z,52.77
2023-06-04T18:28:48.594Z,53.24
2023-06-04T18:31:15.420Z,53.30
2023-06-04T18:34:01.766Z,54.17
2023-06-04T18:36:29.664Z,54.96
2023-06-04T18:38:56.624Z,55.85
2023-06-04T18:41:23.720Z,55.46
2023-06-04T18:43:51.057Z,56.26
2023-06-04T18:46:18.956Z,56.55
2023-06-04T18:48:49.023Z,57.68
2023-06-04T18:51:15.630Z,57.82
2023-06-04T18:53:42.360Z,58.63
2023-06-04T18:56:09.300Z,59.57
2023-06-04T18:58:36.353Z,59.90
2023-06-04T19:01:03.036Z,59.74
2023-06-04T19:03:30.905Z,60.17
2023-06-04T19:05:57.674Z,61.00
2023-06-04T19:08:24.436Z,61.50
2023-06-04T19:10:53.092Z,61.40
2023-06-04T19:13:19.989Z,61.57
2023-06-04T19:15:46.715Z,61.68
2023-06-04T19:18:13.484Z,61.55
2023-06-04T19:20:40.174Z,61.41
2023-06-04T19:23:07.389Z,61.02
2023-06-04T19:25:34.075Z,60.94
2023-06-04T19:28:00.747Z,60.94
2023-06-04T19:30:27.370Z,61.11
2023-06-04T19:32:55.342Z,61.07
2023-06-04T19:35:22.092Z,61.69
2023-06-04T19:37:48.862Z,62.03
2023-06-04T19:40:18.515Z,62.14
2023-06-04T19:42:45.561Z,62.34
2023-06-04T19:45:12.825Z,62.54
2023-06-04T19:47:39.772Z,62.60
2023-06-04T19:50:07.038Z,62.76
2023-06-04T19:52:33.752Z,63.06
2023-06-04T19:55:00.449Z,63.31
2023-06-04T19:57:27.562Z,63.59
2023-06-04T19:59:54.261Z,63.96
2023-06-04T20:02:21.050Z,64.07
2023-06-04T20:04:47.747Z,63.85
2023-06-04T20:07:14.653Z,64.57
2023-06-04T20:09:41.366Z,64.90
2023-06-04T20:12:08.159Z,65.32
2023-06-04T20:14:34.938Z,65.13
2023-06-04T20:17:01.780Z,65.13
2023-06-04T20:19:28.713Z,66.03
2023-06-04T20:21:55.648Z,65.85
2023-06-04T20:24:23.337Z,66.57
2023-06-04T20:26:50.136Z,65.96
2023-06-04T20:29:16.769Z,66.57
2023-06-04T20:31:43.554Z,66.58
2023-06-04T20:34:10.196Z,67.33
2023-06-04T20:36:38.385Z,67.30
2023-06-04T20:39:05.055Z,67.40
2023-06-04T20:41:31.748Z,67.28
2023-06-04T20:43:58.532Z,67.72
2023-06-04T20:46:25.269Z,68.00
2023-06-04T20:48:52.245Z,68.85
2023-06-04T20:51:19.712Z,68.81
2023-06-04T20:53:50.551Z,68.28
2023-06-04T20:56:17.459Z,68.24
2023-06-04T20:58:44.201Z,68.51
2023-06-04T21:01:12.236Z,68.33
2023-06-04T21:03:39.093Z,68.16
2023-06-04T21:06:06.263Z,68.06
2023-06-04T21:08:34.374Z,68.28
2023-06-04T21:11:01.014Z,68.10
2023-06-04T21:13:27.672Z,68.45
2023-06-04T21:15:54.389Z,68.79
2023-06-04T21:18:22.376Z,69.10
2023-06-04T21:20:49.038Z,69.45
2023-06-04T21:23:15.854Z,69.99
2023-06-04T21:25:44.006Z,70.04
2023-06-04T21:28:10.836Z,69.89
2023-06-04T21:30:38.830Z,69.89
2023-06-04T21:33:05.598Z,70.63
2023-06-04T21:35:32.276Z,70.24
2023-06-04T21:37:59.024Z,70.51
2023-06-04T21:40:26.032Z,70.88
2023-06-04T21:42:52.745Z,71.05
2023-06-04T21:45:19.763Z,71.60
2023-06-04T21:47:46.802Z,71.67
2023-06-04T21:50:13.667Z,71.84
2023-06-04T21:52:40.525Z,71.98
2023-06-04T21:55:07.556Z,71.39
2023-06-04T21:57:34.241Z,71.78
2023-06-04T22:00:01.055Z,71.88
2023-06-04T22:02:27.732Z,71.94
2023-06-04T22:04:54.403Z,72.08
2023-06-04T22:07:21.138Z,71.46
2023-06-04T22:09:47.744Z,72.10
2023-06-04T22:12:14.471Z,72.70
2023-06-04T22:14:41.301Z,72.98
2023-06-04T22:17:07.983Z,72.79
2023-06-04T22:19:34.687Z,72.79
2023-06-04T22:22:01.549Z,73.00
2023-06-04T22:24:28.192Z,73.87
2023-06-04T22:26:54.869Z,73.67
2023-06-04T22:29:21.621Z,73.96
2023-06-04T22:31:48.500Z,74.27
2023-06-04T22:34:15.349Z,74.44
2023-06-04T22:36:43.636Z,74.96
2023-06-04T22:39:10.615Z,74.47
2023-06-04T22:41:37.286Z,74.74
2023-06-04T22:44:04.237Z,75.01
2023-06-04T22:46:31.441Z,75.19
2023-06-04T22:48:58.135Z,75.57
2023-06-04T22:51:25.031Z,75.60
2023-06-04T22:53:51.986Z,76.28
2023-06-04T22:56:18.706Z,76.15
2023-06-04T22:58:46.655Z,76.12
2023-06-04T23:01:13.456Z,76.36
2023-06-04T23:03:41.177Z,76.67
2023-06-04T23:06:07.978Z,76.23
2023-06-04T23:08:34.658Z,76.36
2023-06-04T23:11:01.366Z,77.12
2023-06-04T23:13:28.128Z,76.92
2023-06-04T23:15:54.806Z,76.97
2023-06-04T23:18:21.504Z,76.68
2023-06-04T23:20:48.289Z,76.74
2023-06-04T23:23:14.948Z,77.27
2023-06-04T23:25:41.732Z,77.66
2023-06-04T23:28:08.550Z,78.41
2023-06-04T23:30:35.360Z,78.79
2023-06-04T23:33:03.916Z,78.52
2023-06-04T23:35:30.673Z,78.86
2023-06-04T23:37:57.336Z,78.76
2023-06-04T23:40:24.032Z,79.10
2023-06-04T23:42:50.903Z,79.43
2023-06-04T23:45:17.617Z,80.44
2023-06-04T23:47:44.265Z,80.22
2023-06-04T23:50:11.384Z,80.37
2023-06-04T23:52:37.996Z,80.14
2023-06-04T23:55:04.959Z,80.58
2023-06-04T23:57:31.707Z,80.44
2023-06-04T23:59:58.400Z,80.02
